Terminal Aerodrome Forecast
Issued by NWS

Current Version | Previous Version | Text Only | Print | Product List | Glossary On
Versions: 1 2 3 4 5 6 7 8 9 10 11 12 13 14 15
405
FTUS42 TJSJ 272339
TAFKPK
TAF
TKPK 272339Z 2800/2824 07010KT P6SM FEW020
     FM280430 04006KT P6SM VCSH FEW018 SCT035
     FM281450 08012KT P6SM SCT024=

USA.gov is the U.S. government's official web portal to all federal, state and local government web resources and services.